Time;durP1;ratioP1;P1;durP2;ratioP2;P2;SDS_P1;SDS_P2;PMS_P1;PMS_P2;Temp;Humidity;BMP_temperature;BMP_pressure;BME280_temperature;BME280_humidity;BME280_pressure;Samples;Min_cycle;Max_cycle;Signal;HPM_P1;HPM_P2
2021/11/28 00:02:22;;;;;;;2.38;1.60;;;;;;;;;;5053105;28;20021;-53
2021/11/28 00:04:49;;;;;;;3.78;1.63;;;;;;;;;;5052607;28;20083;-50
2021/11/28 00:14:46;;;;;;;2.70;1.48;;;;;;;;;;5049463;28;20025;-49
2021/11/28 00:17:13;;;;;;;2.67;1.50;;;;;;;;;;5052515;28;20470;-52
2021/11/28 00:19:40;;;;;;;2.38;1.65;;;;;;;;;;5052248;28;20051;-51
2021/11/28 00:22:06;;;;;;;2.55;1.63;;;;;;;;;;5049964;28;20055;-49
2021/11/28 00:24:32;;;;;;;2.35;1.52;;;;;;;;;;5052434;28;20047;-56
2021/11/28 00:26:59;;;;;;;2.13;1.73;;;;;;;;;;5052304;28;20048;-49
2021/11/28 00:29:25;;;;;;;2.72;1.58;;;;;;;;;;5052618;28;20037;-49
2021/11/28 00:31:51;;;;;;;2.40;1.45;;;;;;;;;;5052374;28;20056;-48
2021/11/28 00:34:17;;;;;;;3.45;1.50;;;;;;;;;;5052499;28;20017;-51
2021/11/28 00:36:43;;;;;;;2.38;1.55;;;;;;;;;;5051405;28;20387;-50
2021/11/28 00:39:09;;;;;;;3.13;1.98;;;;;;;;;;5052242;28;20028;-50
2021/11/28 00:41:35;;;;;;;3.05;2.00;;;;;;;;;;5051557;28;20036;-54
2021/11/28 00:44:01;;;;;;;3.00;1.50;;;;;;;;;;5052186;28;20025;-50
2021/11/28 00:46:27;;;;;;;2.10;1.60;;;;;;;;;;5052473;28;20381;-51
2021/11/28 00:48:53;;;;;;;3.53;1.88;;;;;;;;;;5051615;28;20067;-53
2021/11/28 00:53:50;;;;;;;2.00;1.40;;;;;;;;;;5048764;28;20116;-50
2021/11/28 00:56:17;;;;;;;3.42;1.88;;;;;;;;;;5051091;28;20351;-53
2021/11/28 00:58:44;;;;;;;2.33;1.60;;;;;;;;;;5051425;28;20089;-54
2021/11/28 01:01:10;;;;;;;2.75;1.80;;;;;;;;;;5052793;28;20020;-50
2021/11/28 01:03:36;;;;;;;3.00;1.88;;;;;;;;;;5051591;28;20024;-52
2021/11/28 01:06:02;;;;;;;2.95;1.80;;;;;;;;;;5051861;28;20021;-52
2021/11/28 01:08:28;;;;;;;2.13;1.33;;;;;;;;;;5051603;28;20025;-51
2021/11/28 01:10:55;;;;;;;2.25;1.50;;;;;;;;;;5051157;28;20146;-52
2021/11/28 01:13:20;;;;;;;2.50;1.95;;;;;;;;;;5051857;28;20130;-52
2021/11/28 01:15:47;;;;;;;3.40;1.85;;;;;;;;;;5050718;28;20053;-49
2021/11/28 01:18:13;;;;;;;3.35;1.58;;;;;;;;;;5051556;28;20095;-51
2021/11/28 01:20:39;;;;;;;2.33;1.40;;;;;;;;;;5051183;28;20021;-52
2021/11/28 01:23:05;;;;;;;2.13;1.60;;;;;;;;;;5051484;28;20060;-52
2021/11/28 01:25:31;;;;;;;1.85;1.63;;;;;;;;;;5051567;28;20025;-55
2021/11/28 01:27:57;;;;;;;2.75;2.03;;;;;;;;;;5051218;28;20029;-54
2021/11/28 01:30:23;;;;;;;1.80;1.52;;;;;;;;;;5051374;28;20033;-52
2021/11/28 01:32:50;;;;;;;2.50;1.55;;;;;;;;;;5050609;28;20071;-51
2021/11/28 01:35:16;;;;;;;2.28;1.40;;;;;;;;;;5051614;28;20017;-50
2021/11/28 01:37:44;;;;;;;1.95;1.70;;;;;;;;;;5050091;28;20099;-52
2021/11/28 01:40:13;;;;;;;2.38;1.30;;;;;;;;;;5051359;28;20048;-53
2021/11/28 01:42:46;;;;;;;3.33;1.70;;;;;;;;;;5050962;28;20017;-49
2021/11/28 01:45:15;;;;;;;2.53;1.67;;;;;;;;;;5049633;28;20626;-52
2021/11/28 01:47:41;;;;;;;2.72;1.65;;;;;;;;;;5050845;28;20053;-50
2021/11/28 01:50:07;;;;;;;2.85;1.65;;;;;;;;;;5050796;28;20429;-52
2021/11/28 01:52:37;;;;;;;3.17;1.77;;;;;;;;;;5050913;28;20025;-55
2021/11/28 01:55:05;;;;;;;2.13;1.48;;;;;;;;;;5051271;28;20481;-52
2021/11/28 01:57:31;;;;;;;2.88;1.65;;;;;;;;;;5052192;28;20028;-55
2021/11/28 01:59:57;;;;;;;3.00;1.85;;;;;;;;;;5052121;28;20107;-51
2021/11/28 02:02:23;;;;;;;3.17;1.90;;;;;;;;;;5052776;28;20120;-52
2021/11/28 02:04:49;;;;;;;2.42;1.65;;;;;;;;;;5051674;28;20051;-53
2021/11/28 02:07:15;;;;;;;2.30;1.67;;;;;;;;;;5051932;28;20027;-52
2021/11/28 02:09:41;;;;;;;2.08;1.80;;;;;;;;;;5050950;28;20033;-51
2021/11/28 02:12:08;;;;;;;2.15;1.40;;;;;;;;;;5052286;28;20029;-52
2021/11/28 02:14:34;;;;;;;2.30;1.40;;;;;;;;;;5051505;28;20033;-55
2021/11/28 02:17:00;;;;;;;2.22;1.73;;;;;;;;;;5052355;28;20033;-50
2021/11/28 02:19:26;;;;;;;1.98;1.40;;;;;;;;;;5051303;28;20029;-50
2021/11/28 02:21:52;;;;;;;3.38;1.77;;;;;;;;;;5051055;28;20032;-49
2021/11/28 02:24:18;;;;;;;2.50;1.80;;;;;;;;;;5051621;28;20378;-48
2021/11/28 02:26:44;;;;;;;2.60;1.70;;;;;;;;;;5051228;28;20029;-49
2021/11/28 02:29:10;;;;;;;2.45;1.73;;;;;;;;;;5052040;28;20122;-49
2021/11/28 02:31:36;;;;;;;2.53;1.75;;;;;;;;;;5051258;28;20374;-51
2021/11/28 02:34:02;;;;;;;2.35;1.48;;;;;;;;;;5052028;28;20047;-51
2021/11/28 02:36:28;;;;;;;1.95;1.40;;;;;;;;;;5051738;28;20478;-48
2021/11/28 02:38:54;;;;;;;2.30;1.60;;;;;;;;;;5051032;28;20028;-48
2021/11/28 02:41:20;;;;;;;3.42;2.13;;;;;;;;;;5051690;28;20036;-48
2021/11/28 02:43:46;;;;;;;2.00;1.50;;;;;;;;;;5050705;28;20071;-49
2021/11/28 02:46:14;;;;;;;2.28;1.52;;;;;;;;;;5051905;28;20478;-48
2021/11/28 02:48:41;;;;;;;2.50;1.58;;;;;;;;;;5050965;28;20017;-50
2021/11/28 02:51:07;;;;;;;3.47;1.98;;;;;;;;;;5051675;28;20033;-49
2021/11/28 02:53:40;;;;;;;1.55;1.30;;;;;;;;;;5051468;28;20470;-55
2021/11/28 02:56:06;;;;;;;2.22;1.80;;;;;;;;;;5051590;28;20029;-48
2021/11/28 02:58:34;;;;;;;2.00;1.27;;;;;;;;;;5051835;28;20021;-49
2021/11/28 03:01:06;;;;;;;2.65;1.70;;;;;;;;;;5051352;28;20036;-50
2021/11/28 03:03:33;;;;;;;2.60;1.80;;;;;;;;;;5051661;28;20032;-49
2021/11/28 03:05:59;;;;;;;2.25;1.77;;;;;;;;;;5051181;28;20025;-52
2021/11/28 03:08:26;;;;;;;2.58;1.63;;;;;;;;;;5051687;28;20029;-49
2021/11/28 03:10:52;;;;;;;1.50;1.35;;;;;;;;;;5050483;28;20029;-48
2021/11/28 03:13:24;;;;;;;2.88;1.67;;;;;;;;;;5051278;28;20113;-48
2021/11/28 03:15:51;;;;;;;2.00;1.70;;;;;;;;;;5050858;28;20416;-48
2021/11/28 03:18:19;;;;;;;3.00;1.30;;;;;;;;;;5051582;28;20128;-53
2021/11/28 03:20:45;;;;;;;2.40;1.70;;;;;;;;;;5050706;28;20107;-52
2021/11/28 03:23:12;;;;;;;2.05;1.70;;;;;;;;;;5051025;28;20505;-51
2021/11/28 03:25:39;;;;;;;1.85;1.45;;;;;;;;;;5050760;28;20387;-52
2021/11/28 03:28:05;;;;;;;2.35;1.60;;;;;;;;;;5051180;28;20474;-48
2021/11/28 03:30:31;;;;;;;2.97;1.60;;;;;;;;;;5051190;28;20494;-51
2021/11/28 03:32:58;;;;;;;2.47;1.58;;;;;;;;;;5054686;28;20102;-52
2021/11/28 03:35:24;;;;;;;3.25;1.80;;;;;;;;;;5055088;28;20389;-49
2021/11/28 03:37:50;;;;;;;3.03;1.60;;;;;;;;;;5054375;28;20454;-51
2021/11/28 03:40:16;;;;;;;2.00;1.50;;;;;;;;;;5054704;28;20470;-49
2021/11/28 03:42:42;;;;;;;2.10;1.60;;;;;;;;;;5054304;28;20071;-52
2021/11/28 03:45:13;;;;;;;2.30;1.40;;;;;;;;;;5054561;28;20043;-51
2021/11/28 03:47:39;;;;;;;3.60;1.90;;;;;;;;;;5054127;28;20032;-56
2021/11/28 03:50:06;;;;;;;2.45;1.50;;;;;;;;;;5054872;28;20037;-51
2021/11/28 03:52:32;;;;;;;2.65;1.50;;;;;;;;;;5054762;28;20029;-53
2021/11/28 03:54:58;;;;;;;2.85;1.80;;;;;;;;;;5054098;28;20438;-49
2021/11/28 03:57:24;;;;;;;2.42;1.58;;;;;;;;;;5054189;28;20079;-53
2021/11/28 03:59:50;;;;;;;4.05;1.58;;;;;;;;;;5053799;28;20078;-51
2021/11/28 04:02:18;;;;;;;2.88;1.77;;;;;;;;;;5054257;28;20513;-53
2021/11/28 04:04:44;;;;;;;3.13;1.50;;;;;;;;;;5053836;28;20082;-53
2021/11/28 04:07:10;;;;;;;2.63;1.60;;;;;;;;;;5054208;28;20021;-52
2021/11/28 04:09:42;;;;;;;2.13;1.48;;;;;;;;;;5054309;28;20422;-55
2021/11/28 04:12:10;;;;;;;2.22;1.42;;;;;;;;;;5054396;28;20041;-51
2021/11/28 04:14:42;;;;;;;1.83;1.63;;;;;;;;;;5054243;28;20021;-55
2021/11/28 04:17:08;;;;;;;2.42;1.70;;;;;;;;;;5054256;28;20376;-53
2021/11/28 04:19:34;;;;;;;2.80;1.45;;;;;;;;;;5054391;28;20040;-51
2021/11/28 04:22:01;;;;;;;2.08;1.17;;;;;;;;;;5053791;28;20025;-49
2021/11/28 04:24:27;;;;;;;2.53;1.20;;;;;;;;;;5054317;28;20032;-50
2021/11/28 04:26:53;;;;;;;3.00;1.65;;;;;;;;;;5053269;28;20032;-49
2021/11/28 04:29:19;;;;;;;1.98;1.25;;;;;;;;;;5053938;28;20028;-52
2021/11/28 04:31:47;;;;;;;1.88;1.30;;;;;;;;;;5053326;28;20371;-50
2021/11/28 04:34:13;;;;;;;2.42;1.30;;;;;;;;;;5054059;28;20430;-49
2021/11/28 04:36:39;;;;;;;2.45;1.35;;;;;;;;;;5053253;28;20057;-55
2021/11/28 04:39:05;;;;;;;1.75;1.30;;;;;;;;;;5053646;28;20394;-49
2021/11/28 04:41:32;;;;;;;2.67;1.50;;;;;;;;;;5053334;28;20033;-51
2021/11/28 04:43:58;;;;;;;2.65;1.20;;;;;;;;;;5053281;28;20532;-49
2021/11/28 04:46:24;;;;;;;2.30;1.70;;;;;;;;;;5053781;28;20083;-49
2021/11/28 04:48:50;;;;;;;2.30;1.50;;;;;;;;;;5053052;28;20025;-52
2021/11/28 04:51:16;;;;;;;1.63;1.27;;;;;;;;;;5053398;28;20025;-51
2021/11/28 04:53:42;;;;;;;1.77;1.27;;;;;;;;;;5053170;28;20059;-53
2021/11/28 04:56:08;;;;;;;1.90;1.38;;;;;;;;;;5053744;28;20033;-49
2021/11/28 04:58:35;;;;;;;2.80;1.25;;;;;;;;;;5053129;28;20487;-50
2021/11/28 05:01:01;;;;;;;1.65;1.30;;;;;;;;;;5052758;28;20841;-50
2021/11/28 05:03:27;;;;;;;2.08;1.50;;;;;;;;;;5053399;28;20040;-49
2021/11/28 05:05:54;;;;;;;1.35;1.25;;;;;;;;;;5052416;28;20391;-48
2021/11/28 05:08:20;;;;;;;2.78;1.30;;;;;;;;;;5053415;28;20347;-54
2021/11/28 05:10:46;;;;;;;1.60;1.30;;;;;;;;;;5052604;28;20406;-52
2021/11/28 05:13:12;;;;;;;2.22;1.20;;;;;;;;;;5052964;28;20017;-50
2021/11/28 05:15:45;;;;;;;1.60;1.10;;;;;;;;;;5052060;28;20542;-55
2021/11/28 05:18:11;;;;;;;2.90;1.38;;;;;;;;;;5053216;28;20421;-50
2021/11/28 05:20:37;;;;;;;1.35;1.00;;;;;;;;;;5053286;28;20029;-49
2021/11/28 05:23:04;;;;;;;2.10;1.25;;;;;;;;;;5052050;28;20482;-49
2021/11/28 05:25:30;;;;;;;1.50;1.30;;;;;;;;;;5052770;28;20029;-49
2021/11/28 05:27:56;;;;;;;1.30;1.08;;;;;;;;;;5052055;28;20366;-49
2021/11/28 05:30:22;;;;;;;2.22;1.10;;;;;;;;;;5051578;28;20127;-53
2021/11/28 05:32:49;;;;;;;2.22;1.38;;;;;;;;;;5052127;28;20059;-49
2021/11/28 05:35:15;;;;;;;1.48;1.20;;;;;;;;;;5053155;28;20413;-53
2021/11/28 05:37:41;;;;;;;2.38;1.42;;;;;;;;;;5051910;28;20093;-55
2021/11/28 05:40:08;;;;;;;2.28;1.35;;;;;;;;;;5052702;28;20033;-49
2021/11/28 05:42:34;;;;;;;2.20;1.20;;;;;;;;;;5052356;28;20386;-52
2021/11/28 05:45:02;;;;;;;1.13;0.77;;;;;;;;;;5052125;28;20029;-51
2021/11/28 05:47:28;;;;;;;2.58;1.15;;;;;;;;;;5052483;28;20044;-53
2021/11/28 05:49:54;;;;;;;1.40;1.05;;;;;;;;;;5051816;28;20041;-51
2021/11/28 05:52:20;;;;;;;1.73;1.05;;;;;;;;;;5052430;28;20493;-48
2021/11/28 05:54:47;;;;;;;0.93;0.80;;;;;;;;;;5051098;28;20036;-53
2021/11/28 05:57:13;;;;;;;1.60;1.15;;;;;;;;;;5052438;28;20017;-56
2021/11/28 05:59:46;;;;;;;2.10;1.52;;;;;;;;;;5052326;28;20064;-56
2021/11/28 06:02:13;;;;;;;1.23;0.88;;;;;;;;;;5052523;28;20029;-53
2021/11/28 06:04:39;;;;;;;1.38;1.13;;;;;;;;;;5052060;28;20029;-50
2021/11/28 06:07:05;;;;;;;1.67;0.90;;;;;;;;;;5051709;28;20024;-51
2021/11/28 06:09:31;;;;;;;1.50;1.13;;;;;;;;;;5052138;28;20025;-51
2021/11/28 06:11:57;;;;;;;1.48;1.00;;;;;;;;;;5051250;28;20532;-52
2021/11/28 06:14:23;;;;;;;1.20;1.10;;;;;;;;;;5051877;28;20037;-50
2021/11/28 06:16:50;;;;;;;2.33;1.20;;;;;;;;;;5051371;28;20075;-49
2021/11/28 06:19:16;;;;;;;1.58;0.90;;;;;;;;;;5051985;28;20417;-54
2021/11/28 06:21:44;;;;;;;1.27;1.00;;;;;;;;;;5051738;28;20025;-54
2021/11/28 06:24:10;;;;;;;1.77;1.10;;;;;;;;;;5052059;28;20021;-50
2021/11/28 06:26:36;;;;;;;1.85;1.52;;;;;;;;;;5052001;28;20463;-53
2021/11/28 06:29:03;;;;;;;1.15;0.60;;;;;;;;;;5051029;28;20585;-50
2021/11/28 06:31:29;;;;;;;2.03;0.93;;;;;;;;;;5051786;28;20043;-50
2021/11/28 06:33:55;;;;;;;1.92;0.77;;;;;;;;;;5051152;28;20102;-49
2021/11/28 06:36:21;;;;;;;1.52;0.98;;;;;;;;;;5051529;28;20143;-51
2021/11/28 06:38:48;;;;;;;2.42;1.20;;;;;;;;;;5051075;28;20087;-52
2021/11/28 06:41:14;;;;;;;2.42;1.17;;;;;;;;;;5051632;28;20025;-49
2021/11/28 06:43:40;;;;;;;1.85;0.88;;;;;;;;;;5051939;28;20053;-51
2021/11/28 06:46:06;;;;;;;1.65;0.90;;;;;;;;;;5051128;28;20513;-48
2021/11/28 06:48:33;;;;;;;1.08;0.88;;;;;;;;;;5052146;28;20382;-49
2021/11/28 06:50:59;;;;;;;1.63;1.20;;;;;;;;;;5050737;28;20033;-49
2021/11/28 06:53:25;;;;;;;2.03;0.90;;;;;;;;;;5051659;28;20022;-49
2021/11/28 06:55:51;;;;;;;1.00;0.80;;;;;;;;;;5051029;28;20033;-48
2021/11/28 06:58:20;;;;;;;1.77;1.00;;;;;;;;;;5051686;28;20032;-49
2021/11/28 07:00:46;;;;;;;1.88;1.33;;;;;;;;;;5050770;28;20036;-55
2021/11/28 07:03:12;;;;;;;1.17;0.90;;;;;;;;;;5051732;28;20032;-49
2021/11/28 07:05:42;;;;;;;1.48;1.00;;;;;;;;;;5053587;28;20029;-48
2021/11/28 07:08:08;;;;;;;1.98;0.90;;;;;;;;;;5055424;28;20032;-51
2021/11/28 07:10:34;;;;;;;1.13;0.93;;;;;;;;;;5055518;28;20045;-50
2021/11/28 07:13:00;;;;;;;1.55;0.70;;;;;;;;;;5054794;28;20036;-51
2021/11/28 07:15:26;;;;;;;1.58;1.00;;;;;;;;;;5054946;28;20483;-53
2021/11/28 07:17:53;;;;;;;1.45;0.90;;;;;;;;;;5054675;28;20155;-50
2021/11/28 07:20:19;;;;;;;1.63;1.42;;;;;;;;;;5055503;28;20074;-50
2021/11/28 07:22:46;;;;;;;1.20;0.80;;;;;;;;;;5054770;28;20025;-55
2021/11/28 07:25:12;;;;;;;1.70;1.00;;;;;;;;;;5055029;28;20036;-48
2021/11/28 07:27:38;;;;;;;2.13;1.10;;;;;;;;;;5055277;28;20377;-49
2021/11/28 07:30:05;;;;;;;2.10;1.20;;;;;;;;;;5054168;28;20358;-49
2021/11/28 07:32:31;;;;;;;1.33;0.95;;;;;;;;;;5055393;28;20017;-52
2021/11/28 07:34:57;;;;;;;1.75;0.90;;;;;;;;;;5054350;28;20021;-50
2021/11/28 07:37:23;;;;;;;1.15;0.75;;;;;;;;;;5054886;28;20045;-48
2021/11/28 07:39:49;;;;;;;2.33;0.90;;;;;;;;;;5054228;28;20035;-51
2021/11/28 07:42:15;;;;;;;2.50;1.50;;;;;;;;;;5054837;28;20127;-48
2021/11/28 07:44:44;;;;;;;3.13;1.20;;;;;;;;;;5054779;28;20470;-55
2021/11/28 07:47:10;;;;;;;3.55;1.00;;;;;;;;;;5054453;28;20020;-55
2021/11/28 07:49:36;;;;;;;1.73;1.33;;;;;;;;;;5049892;28;20017;-54
2021/11/28 07:52:03;;;;;;;2.78;1.02;;;;;;;;;;5052518;28;20922;-54
2021/11/28 07:54:29;;;;;;;2.00;0.88;;;;;;;;;;5053226;28;20075;-52
2021/11/28 07:56:55;;;;;;;2.05;0.80;;;;;;;;;;5052230;28;20420;-55
2021/11/28 07:59:21;;;;;;;2.78;1.20;;;;;;;;;;5053288;28;20713;-54
2021/11/28 08:01:47;;;;;;;2.35;0.80;;;;;;;;;;5052117;28;20017;-56
2021/11/28 08:04:13;;;;;;;1.50;0.93;;;;;;;;;;5053219;28;20036;-54
2021/11/28 08:06:39;;;;;;;1.48;1.00;;;;;;;;;;5053042;28;20067;-53
2021/11/28 08:09:05;;;;;;;1.63;0.93;;;;;;;;;;5051899;28;20521;-53
2021/11/28 08:11:31;;;;;;;1.58;1.20;;;;;;;;;;5052987;28;20039;-54
2021/11/28 08:13:57;;;;;;;1.58;0.95;;;;;;;;;;5049534;28;20053;-53
2021/11/28 08:16:24;;;;;;;4.88;1.88;;;;;;;;;;5051900;28;20021;-55
2021/11/28 08:18:50;;;;;;;2.08;0.88;;;;;;;;;;5051504;28;20025;-52
2021/11/28 08:21:16;;;;;;;1.17;0.90;;;;;;;;;;5052518;28;20021;-54
2021/11/28 08:23:42;;;;;;;1.90;0.93;;;;;;;;;;5052493;28;20032;-54
2021/11/28 08:26:09;;;;;;;1.90;1.02;;;;;;;;;;5050950;28;20462;-54
2021/11/28 08:28:36;;;;;;;1.95;1.02;;;;;;;;;;5052564;28;20017;-54
2021/11/28 08:31:03;;;;;;;1.58;1.08;;;;;;;;;;5051795;28;20025;-55
2021/11/28 08:33:29;;;;;;;2.38;1.20;;;;;;;;;;5052884;28;20025;-53
2021/11/28 08:35:55;;;;;;;1.48;1.10;;;;;;;;;;5051143;28;20044;-54
2021/11/28 08:38:21;;;;;;;2.45;1.10;;;;;;;;;;5052350;28;20049;-55
2021/11/28 08:40:47;;;;;;;1.88;0.90;;;;;;;;;;5051706;28;20037;-55
2021/11/28 08:43:13;;;;;;;1.55;1.10;;;;;;;;;;5050339;28;20374;-53
2021/11/28 08:45:40;;;;;;;0.90;0.75;;;;;;;;;;5052080;28;20047;-54
2021/11/28 08:48:06;;;;;;;1.83;1.20;;;;;;;;;;5051484;28;20029;-53
2021/11/28 08:50:33;;;;;;;1.45;1.13;;;;;;;;;;5049743;28;20107;-50
2021/11/28 08:52:59;;;;;;;1.77;0.95;;;;;;;;;;5051681;28;20036;-50
2021/11/28 08:55:25;;;;;;;2.15;1.10;;;;;;;;;;5052104;28;20032;-52
2021/11/28 08:57:51;;;;;;;1.50;1.15;;;;;;;;;;5051508;28;20017;-53
2021/11/28 09:00:17;;;;;;;1.45;0.80;;;;;;;;;;5053479;28;20082;-47
2021/11/28 09:02:50;;;;;;;1.70;1.20;;;;;;;;;;5053210;28;20063;-53
2021/11/28 09:05:19;;;;;;;1.83;1.20;;;;;;;;;;5053336;28;20029;-47
2021/11/28 09:07:48;;;;;;;3.25;1.20;;;;;;;;;;5052782;28;20032;-54
2021/11/28 09:10:15;;;;;;;11.02;1.10;;;;;;;;;;5053295;28;20032;-59
2021/11/28 09:12:42;;;;;;;2.60;1.38;;;;;;;;;;5053356;28;20109;-48
2021/11/28 09:15:08;;;;;;;5.93;1.63;;;;;;;;;;5052537;28;20079;-57
2021/11/28 09:17:34;;;;;;;2.47;1.20;;;;;;;;;;5052908;28;20043;-59
2021/11/28 09:20:05;;;;;;;6.47;1.80;;;;;;;;;;5052296;28;20025;-51
2021/11/28 09:24:36;;;;;;;3.78;1.35;;;;;;;;;;5053063;28;20013;-58
2021/11/28 09:25:22;;;;;;;3.10;1.30;;;;;;;;;;5052438;28;20474;-59
2021/11/28 09:27:50;;;;;;;8.00;1.85;;;;;;;;;;5051746;28;20035;-58
2021/11/28 09:30:18;;;;;;;3.63;1.50;;;;;;;;;;5052309;28;20079;-60
2021/11/28 09:32:45;;;;;;;4.10;1.50;;;;;;;;;;5052390;28;20029;-57
2021/11/28 09:35:11;;;;;;;5.97;1.55;;;;;;;;;;5051294;28;20075;-44
2021/11/28 09:37:37;;;;;;;6.40;2.38;;;;;;;;;;5051275;28;20060;-58
2021/11/28 09:40:04;;;;;;;2.47;1.40;;;;;;;;;;5050858;28;20033;-61
2021/11/28 09:42:33;;;;;;;5.78;1.67;;;;;;;;;;5052053;28;20096;-60
2021/11/28 09:45:00;;;;;;;5.38;1.60;;;;;;;;;;5051305;28;20029;-54
2021/11/28 09:47:27;;;;;;;7.25;1.40;;;;;;;;;;5052149;28;20485;-60
2021/11/28 09:49:55;;;;;;;3.83;1.10;;;;;;;;;;5051355;28;20021;-45
2021/11/28 09:52:23;;;;;;;2.80;1.30;;;;;;;;;;5052100;28;20021;-61
2021/11/28 09:54:51;;;;;;;3.65;1.52;;;;;;;;;;5051566;28;20023;-58
2021/11/28 09:57:19;;;;;;;3.85;1.27;;;;;;;;;;5058167;28;20063;-58
2021/11/28 09:59:48;;;;;;;1.65;1.10;;;;;;;;;;5051475;28;20036;-59
2021/11/28 10:02:20;;;;;;;3.70;1.33;;;;;;;;;;5051454;28;20021;-61
2021/11/28 10:04:48;;;;;;;;;;;;;;;;;;5049062;28;20025;-64
2021/11/28 10:07:15;;;;;;;3.08;1.30;;;;;;;;;;5051897;28;19908;-66
2021/11/28 10:09:41;;;;;;;7.25;1.50;;;;;;;;;;5052011;28;20105;-64
2021/11/28 10:12:23;;;;;;;5.47;1.50;;;;;;;;;;5050647;28;20163;-64
2021/11/28 10:14:52;;;;;;;5.25;1.50;;;;;;;;;;5051427;28;20033;-65
2021/11/28 10:17:19;;;;;;;5.35;1.55;;;;;;;;;;5051973;28;20179;-67
2021/11/28 10:19:48;;;;;;;4.72;1.30;;;;;;;;;;5051395;28;20021;-61
2021/11/28 10:22:14;;;;;;;4.05;1.52;;;;;;;;;;5051486;28;20021;-63
2021/11/28 10:24:51;;;;;;;3.13;1.25;;;;;;;;;;5051652;28;20509;-66
2021/11/28 10:27:17;;;;;;;1.55;1.17;;;;;;;;;;5051550;28;20043;-61
2021/11/28 10:29:44;;;;;;;4.50;1.73;;;;;;;;;;5051764;28;20032;-61
2021/11/28 10:32:11;;;;;;;1.55;1.10;;;;;;;;;;5050840;28;20040;-57
2021/11/28 10:34:44;;;;;;;4.95;1.73;;;;;;;;;;5051929;28;20021;-60
2021/11/28 10:37:20;;;;;;;7.22;2.53;;;;;;;;;;5050773;28;20052;-61
2021/11/28 10:40:00;;;;;;;6.57;2.60;;;;;;;;;;5051327;28;20029;-61
2021/11/28 10:42:27;;;;;;;11.10;3.30;;;;;;;;;;5051680;28;20025;-62
2021/11/28 10:44:59;;;;;;;12.27;3.67;;;;;;;;;;5050711;28;20171;-62
2021/11/28 10:47:35;;;;;;;8.75;3.45;;;;;;;;;;5051482;28;20516;-59
2021/11/28 10:50:22;;;;;;;8.00;3.40;;;;;;;;;;5050538;28;20033;-61
2021/11/28 10:52:52;;;;;;;12.02;5.18;;;;;;;;;;5051338;28;20032;-62
2021/11/28 10:55:24;;;;;;;80.97;46.03;;;;;;;;;;5051687;28;20029;-60
2021/11/28 10:58:11;;;;;;;62.28;35.40;;;;;;;;;;5050719;28;20063;-59
2021/11/28 11:00:38;;;;;;;57.53;33.90;;;;;;;;;;5051780;28;20028;-65
2021/11/28 11:03:17;;;;;;;54.08;30.38;;;;;;;;;;5050773;28;20029;-61
2021/11/28 11:05:44;;;;;;;45.45;27.25;;;;;;;;;;5051695;28;20390;-61
2021/11/28 11:08:12;;;;;;;35.55;24.13;;;;;;;;;;5050686;28;20048;-62
2021/11/28 11:10:39;;;;;;;39.58;22.90;;;;;;;;;;5051091;28;20029;-61
2021/11/28 11:13:11;;;;;;;36.55;21.83;;;;;;;;;;5049876;28;20121;-62
2021/11/28 11:15:44;;;;;;;34.15;19.48;;;;;;;;;;5050854;28;20086;-64
2021/11/28 11:18:11;;;;;;;28.48;17.05;;;;;;;;;;5050621;28;20009;-59
2021/11/28 11:20:39;;;;;;;25.65;16.10;;;;;;;;;;5051124;28;20051;-60
2021/11/28 11:23:25;;;;;;;32.42;16.25;;;;;;;;;;5049996;28;20051;-59
2021/11/28 11:25:52;;;;;;;27.50;17.00;;;;;;;;;;5050987;28;20023;-60
2021/11/28 11:28:19;;;;;;;26.58;15.55;;;;;;;;;;5051040;28;20110;-59
2021/11/28 11:30:46;;;;;;;29.20;14.98;;;;;;;;;;5051120;28;20112;-59
2021/11/28 11:33:12;;;;;;;24.60;12.82;;;;;;;;;;5050141;28;20044;-59
2021/11/28 11:35:40;;;;;;;25.10;14.98;;;;;;;;;;5051067;28;20413;-59
2021/11/28 11:38:11;;;;;;;23.80;15.13;;;;;;;;;;5050499;28;20045;-59
2021/11/28 11:40:38;;;;;;;26.15;14.23;;;;;;;;;;5051191;28;20017;-59
2021/11/28 11:43:04;;;;;;;22.05;14.68;;;;;;;;;;5050253;28;20128;-59
2021/11/28 11:45:33;;;;;;;20.33;12.60;;;;;;;;;;5051371;28;20036;-59
2021/11/28 11:47:59;;;;;;;22.83;13.45;;;;;;;;;;5050418;28;20025;-59
2021/11/28 11:50:27;;;;;;;21.63;12.88;;;;;;;;;;5050518;28;20527;-59
2021/11/28 11:52:53;;;;;;;20.55;12.35;;;;;;;;;;5052501;28;20086;-59
2021/11/28 11:55:21;;;;;;;19.70;13.20;;;;;;;;;;5054701;28;20024;-59
2021/11/28 11:58:02;;;;;;;20.33;12.05;;;;;;;;;;5054488;28;20490;-59
2021/11/28 12:00:30;;;;;;;14.93;10.75;;;;;;;;;;5054747;28;20082;-59
2021/11/28 12:02:56;;;;;;;16.90;11.50;;;;;;;;;;5053464;28;20436;-59
2021/11/28 12:05:25;;;;;;;18.17;11.43;;;;;;;;;;5054382;28;20025;-59
2021/11/28 12:07:54;;;;;;;18.15;10.68;;;;;;;;;;5053880;28;20066;-59
2021/11/28 12:10:32;;;;;;;16.23;10.15;;;;;;;;;;5054443;28;20458;-58
2021/11/28 12:13:01;;;;;;;13.85;9.40;;;;;;;;;;5053950;28;20025;-59
2021/11/28 12:15:31;;;;;;;16.25;10.32;;;;;;;;;;5054069;28;20041;-58
2021/11/28 12:17:58;;;;;;;15.10;9.45;;;;;;;;;;5053522;28;20033;-59
2021/11/28 12:20:43;;;;;;;14.68;9.23;;;;;;;;;;5053886;28;20040;-59
2021/11/28 12:23:09;;;;;;;15.63;9.82;;;;;;;;;;5053238;28;20040;-59
2021/11/28 12:25:41;;;;;;;15.05;9.13;;;;;;;;;;5054584;28;20040;-59
2021/11/28 12:28:26;;;;;;;15.82;8.90;;;;;;;;;;5053195;28;20025;-59
2021/11/28 12:31:12;;;;;;;13.18;8.27;;;;;;;;;;5053695;28;20107;-59
2021/11/28 12:33:57;;;;;;;13.68;8.85;;;;;;;;;;5053573;28;20021;-59
2021/11/28 12:36:43;;;;;;;14.07;8.65;;;;;;;;;;5053326;28;20502;-59
2021/11/28 12:39:19;;;;;;;13.00;8.07;;;;;;;;;;5053055;28;20132;-59
2021/11/28 12:41:45;;;;;;;14.75;8.48;;;;;;;;;;5053867;28;20031;-58
2021/11/28 12:44:12;;;;;;;11.52;7.03;;;;;;;;;;5052927;28;20029;-59
2021/11/28 12:46:40;;;;;;;13.90;8.65;;;;;;;;;;5053877;28;20029;-59
2021/11/28 12:49:26;;;;;;;12.35;8.13;;;;;;;;;;5052614;28;20036;-59
2021/11/28 12:51:56;;;;;;;12.80;7.40;;;;;;;;;;5022043;28;20059;-59
2021/11/28 12:54:29;;;;;;;11.73;7.10;;;;;;;;;;5053732;28;20025;-59
2021/11/28 12:57:19;;;;;;;11.10;7.00;;;;;;;;;;5052577;28;20078;-60
2021/11/28 13:00:04;;;;;;;12.43;7.68;;;;;;;;;;5024866;28;20037;-59
2021/11/28 13:02:44;;;;;;;12.48;7.28;;;;;;;;;;5053131;28;20035;-59
2021/11/28 13:05:46;;;;;;;10.75;6.82;;;;;;;;;;5052629;28;20025;-59
2021/11/28 13:08:12;;;;;;;;;;;;;;;;;;5052870;28;20014;-59
2021/11/28 13:10:40;;;;;;;10.02;6.22;;;;;;;;;;5053004;28;19909;-59
2021/11/28 13:13:15;;;;;;;11.07;6.88;;;;;;;;;;5052555;28;20033;-58
2021/11/28 13:15:45;;;;;;;11.18;6.80;;;;;;;;;;5052871;28;20115;-59
2021/11/28 13:18:12;;;;;;;9.50;6.43;;;;;;;;;;5051153;28;20714;-59
2021/11/28 13:20:40;;;;;;;10.82;6.45;;;;;;;;;;5052411;28;20486;-58
2021/11/28 13:23:08;;;;;;;10.13;7.05;;;;;;;;;;5051893;28;20021;-60
2021/11/28 13:25:36;;;;;;;12.55;6.82;;;;;;;;;;5052889;28;20413;-59
2021/11/28 13:28:06;;;;;;;11.82;7.40;;;;;;;;;;5052379;28;20127;-59
2021/11/28 13:30:40;;;;;;;10.27;6.20;;;;;;;;;;5052961;28;20021;-59
2021/11/28 13:33:07;;;;;;;9.18;5.72;;;;;;;;;;5052119;28;20033;-59
2021/11/28 13:35:35;;;;;;;8.30;5.57;;;;;;;;;;5052854;28;20047;-59
2021/11/28 13:38:14;;;;;;;9.35;6.18;;;;;;;;;;5052146;28;20041;-58
2021/11/28 13:40:40;;;;;;;9.18;5.82;;;;;;;;;;5052732;28;20112;-59
2021/11/28 13:43:06;;;;;;;10.57;6.40;;;;;;;;;;5052244;28;20029;-59
2021/11/28 13:45:33;;;;;;;9.32;5.88;;;;;;;;;;5052769;28;20033;-59
2021/11/28 13:47:59;;;;;;;8.70;5.90;;;;;;;;;;5050472;28;20071;-59
2021/11/28 13:50:25;;;;;;;8.40;5.20;;;;;;;;;;5052247;28;20025;-59
2021/11/28 13:52:51;;;;;;;8.93;5.53;;;;;;;;;;5052501;28;20116;-59
2021/11/28 13:55:17;;;;;;;7.80;5.50;;;;;;;;;;5051442;28;20025;-59
2021/11/28 13:57:43;;;;;;;7.80;5.38;;;;;;;;;;5052496;28;20032;-59
2021/11/28 14:00:10;;;;;;;8.80;5.53;;;;;;;;;;5051274;28;20021;-59
2021/11/28 14:02:39;;;;;;;8.93;5.80;;;;;;;;;;5052057;28;20025;-58
2021/11/28 14:05:06;;;;;;;7.75;5.15;;;;;;;;;;5051374;28;20530;-59
2021/11/28 14:07:43;;;;;;;7.13;4.97;;;;;;;;;;5051962;28;20382;-59
2021/11/28 14:10:12;;;;;;;7.07;4.40;;;;;;;;;;5051158;28;20029;-59
2021/11/28 14:12:39;;;;;;;8.93;5.43;;;;;;;;;;5051959;28;20112;-59
2021/11/28 14:15:18;;;;;;;6.30;4.18;;;;;;;;;;5050824;28;20025;-59
2021/11/28 14:17:56;;;;;;;6.15;4.20;;;;;;;;;;5052202;28;20025;-59
2021/11/28 14:20:25;;;;;;;9.63;5.07;;;;;;;;;;5051550;28;20033;-60
2021/11/28 14:22:54;;;;;;;9.00;4.45;;;;;;;;;;5051765;28;20378;-59
2021/11/28 14:25:25;;;;;;;7.68;5.07;;;;;;;;;;5051291;28;20085;-59
2021/11/28 14:28:06;;;;;;;8.40;4.45;;;;;;;;;;5052162;28;20021;-59
2021/11/28 14:30:33;;;;;;;5.47;3.77;;;;;;;;;;5051981;28;20037;-59
2021/11/28 14:33:03;;;;;;;8.27;4.80;;;;;;;;;;5050923;28;20036;-59
2021/11/28 14:35:29;;;;;;;6.75;4.13;;;;;;;;;;5051941;28;20017;-59
2021/11/28 14:38:12;;;;;;;5.65;3.72;;;;;;;;;;5051539;28;20049;-60
2021/11/28 14:40:40;;;;;;;6.40;4.20;;;;;;;;;;5051683;28;20158;-58
2021/11/28 14:43:06;;;;;;;6.40;4.32;;;;;;;;;;5051021;28;20017;-59
2021/11/28 14:45:33;;;;;;;6.75;3.90;;;;;;;;;;5051349;28;20040;-59
2021/11/28 14:48:15;;;;;;;5.82;3.75;;;;;;;;;;5051012;28;20367;-59
2021/11/28 14:50:46;;;;;;;7.55;3.58;;;;;;;;;;5031850;28;20030;-59
2021/11/28 14:53:12;;;;;;;6.53;3.72;;;;;;;;;;5031204;28;20037;-59
2021/11/28 14:55:43;;;;;;;6.55;4.03;;;;;;;;;;5031627;28;20033;-60
2021/11/28 14:58:09;;;;;;;5.95;3.92;;;;;;;;;;5030765;28;20505;-59